Marseille, Frankreich

03:08 PM CET am 20. Januar 2017 (GMT +0100)
Marseille / Provence | | Change Station

Höhe 118 ft 43.45 °N, 5.23 °E | Updated 8 minutes ago

Clear
Heiter
55 °F
gefühlte 55 °F
N
17
Wind Wechselnd Wind aus Ost

Heute
Max. -- | schwach -- °F
--% Regenrisiko
Gestern
Max. -- | schwach -- °F
Precip. -- inch
Druck 30.27 inch
Sichtweite -9999.0 Meilen
Wolken
Taupunkt 28 °F
Feuchtigkeit 36%
Regen 0.00 inch
Schneehöhe Nicht verfügbar..
8:05 AM 5:34 PM
Letztes Viertel, 44% visible
METAR LFML 201400Z AUTO 09015KT CAVOK 13/M02 Q1025 BECMG VRB05KT
Druck 30.27 inch
Sichtweite -9999.0 Meilen
Wolken
Taupunkt 28 °F
Feuchtigkeit 36%
Regen 0.00 inch
Schneehöhe Nicht verfügbar..
8:05 AM 5:34 PM
Letztes Viertel, 44% visible
METAR LFML 201400Z AUTO 09015KT CAVOK 13/M02 Q1025 BECMG VRB05KT

Get Your Daily Forecast Email!

Thanks for signing up!

Be on the lookout for a verification email in your inbox.

You'll start receiving the daily forecast at 8 AM.

×

10-Day Weather Forecast

×

Almanac

Astronomie

Jan. 20, 2017 Aufgang Untergang
Genaue Zeit
Bürgerliche Dämmerung
Nautische Dämmerung
Astronomische Dämmerung
Mond
Länge des sichtbaren Lichts
Tageslänge
Tomorrow will be .
, % of the Moon is Illuminated

Heutige Rekorde

Country Highs Country Lows

Community

WunderPhotos

Upload Photos

1,962,540 Fotos hochgeladen!

WunderBlog® & News

Nearby

Luftqualität

  Luftqualität LQ Index Schadstoff
Not available.

Schneehöhe

Station Depth Höhe

Erdbebenaktivität

Stadt Distance Mag. Time & Date
Minimum magnitude displayed is 2.5.

küstennahe Wassertemperaturen

Ort Temperatur

Stations

Wetterstationen in der Umgebung

Stationsstandort Temp. Windchill Taupunkt Feuchtigkeit Wind Precip. Höhe Aktualisiert Art